createdAt,value
2018-08-19T00:02:26.607Z,9.43
2018-08-19T00:05:12.385Z,8.73
2018-08-19T00:07:42.131Z,8.90
2018-08-19T00:10:11.894Z,9.07
2018-08-19T00:12:45.409Z,9.57
2018-08-19T00:15:15.897Z,9.43
2018-08-19T00:17:46.129Z,8.27
2018-08-19T00:20:15.956Z,9.37
2018-08-19T00:22:46.229Z,9.37
2018-08-19T00:25:31.503Z,8.97
2018-08-19T00:28:01.486Z,8.10
2018-08-19T00:30:33.705Z,8.87
2018-08-19T00:33:03.768Z,8.53
2018-08-19T00:35:34.470Z,8.73
2018-08-19T00:38:04.339Z,9.10
2018-08-19T00:40:34.084Z,8.83
2018-08-19T00:43:03.762Z,8.43
2018-08-19T00:45:33.407Z,9.30
2018-08-19T00:48:03.176Z,9.43
2018-08-19T00:50:32.975Z,8.10
2018-08-19T00:53:02.737Z,9.47
2018-08-19T00:55:39.581Z,9.37
2018-08-19T00:58:17.893Z,9.57
2018-08-19T01:00:47.635Z,8.90
2018-08-19T01:03:17.423Z,9.27
2018-08-19T01:05:47.082Z,9.33
2018-08-19T01:08:16.853Z,9.30
2018-08-19T01:10:46.582Z,8.77
2018-08-19T01:13:16.392Z,8.40
2018-08-19T01:15:46.137Z,9.43
2018-08-19T01:18:15.957Z,9.53
2018-08-19T01:20:45.749Z,9.20
2018-08-19T01:23:15.533Z,9.07
2018-08-19T01:25:45.258Z,9.80
2018-08-19T01:28:15.609Z,9.60
2018-08-19T01:30:45.345Z,9.40
2018-08-19T01:33:15.145Z,9.40
2018-08-19T01:35:44.845Z,9.77
2018-08-19T01:38:14.460Z,9.60
2018-08-19T01:40:44.093Z,9.17
2018-08-19T01:43:13.832Z,9.70
2018-08-19T01:45:44.421Z,9.00
2018-08-19T01:48:14.161Z,9.27
2018-08-19T01:50:43.839Z,9.83
2018-08-19T01:53:13.571Z,8.57
2018-08-19T01:55:43.270Z,8.93
2018-08-19T01:58:12.918Z,8.27
2018-08-19T02:00:42.690Z,9.10
2018-08-19T02:03:12.522Z,9.73
2018-08-19T02:05:42.316Z,8.23
2018-08-19T02:08:12.122Z,8.97
2018-08-19T02:10:41.934Z,9.23
2018-08-19T02:13:11.626Z,9.50
2018-08-19T02:15:41.252Z,9.93
2018-08-19T02:18:11.018Z,10.17
2018-08-19T02:20:42.006Z,9.57
2018-08-19T02:23:13.257Z,10.57
2018-08-19T02:25:48.717Z,9.53
2018-08-19T02:28:22.423Z,10.43
2018-08-19T02:30:57.218Z,10.87
2018-08-19T02:33:27.218Z,9.77
2018-08-19T02:36:04.886Z,10.50
2018-08-19T02:38:34.903Z,10.87
2018-08-19T02:41:04.950Z,10.17
2018-08-19T02:43:34.736Z,11.07
2018-08-19T02:46:04.478Z,10.73
2018-08-19T02:48:47.493Z,10.53
2018-08-19T02:51:18.358Z,11.17
2018-08-19T02:53:49.337Z,10.57
2018-08-19T02:56:19.871Z,10.80
2018-08-19T02:58:49.662Z,11.03
2018-08-19T03:01:19.565Z,11.40
2018-08-19T03:03:49.151Z,11.13
2018-08-19T03:06:19.210Z,11.33
2018-08-19T03:09:03.603Z,11.47
2018-08-19T03:11:34.305Z,10.50
2018-08-19T03:14:04.619Z,11.07
2018-08-19T03:16:35.553Z,10.73
2018-08-19T03:19:05.403Z,10.13
2018-08-19T03:21:35.077Z,11.60
2018-08-19T03:24:04.774Z,9.83
2018-08-19T03:26:34.494Z,10.60
2018-08-19T03:29:08.185Z,10.97
2018-08-19T03:31:37.779Z,10.17
2018-08-19T03:34:07.568Z,10.60
2018-08-19T03:36:37.728Z,10.80
2018-08-19T03:39:17.458Z,10.83
2018-08-19T03:41:47.314Z,11.10
2018-08-19T03:44:17.595Z,11.70
2018-08-19T03:46:47.256Z,11.33
2018-08-19T03:49:17.046Z,10.77
2018-08-19T03:51:47.183Z,11.37
2018-08-19T03:54:16.979Z,12.20
2018-08-19T03:56:46.646Z,11.33
2018-08-19T03:59:16.288Z,11.50
2018-08-19T04:01:46.630Z,11.57
2018-08-19T04:04:17.671Z,12.20
2018-08-19T04:06:47.318Z,11.73
2018-08-19T04:09:17.088Z,11.93
2018-08-19T04:11:59.440Z,11.93
2018-08-19T04:14:30.561Z,11.93
2018-08-19T04:17:01.378Z,11.33
2018-08-19T04:19:31.136Z,10.53
2018-08-19T04:22:03.071Z,11.73
2018-08-19T04:24:33.216Z,12.13
2018-08-19T04:27:08.087Z,12.17
2018-08-19T04:29:38.103Z,11.50
2018-08-19T04:32:17.494Z,11.03
2018-08-19T04:34:47.202Z,11.80
2018-08-19T04:37:16.859Z,12.40
2018-08-19T04:39:46.642Z,12.10
2018-08-19T04:42:16.507Z,11.50
2018-08-19T04:44:46.154Z,11.17
2018-08-19T04:47:29.784Z,10.53
2018-08-19T04:49:59.546Z,12.57
2018-08-19T04:52:29.224Z,11.40
2018-08-19T04:54:59.039Z,11.60
2018-08-19T04:57:29.674Z,12.07
2018-08-19T04:59:59.502Z,10.97
2018-08-19T05:02:29.424Z,10.43
2018-08-19T05:04:59.246Z,11.87
2018-08-19T05:07:29.025Z,12.70
2018-08-19T05:09:58.765Z,12.43
2018-08-19T05:12:29.461Z,12.07
2018-08-19T05:14:59.465Z,11.40
2018-08-19T05:17:29.112Z,11.67
2018-08-19T05:20:16.177Z,12.33
2018-08-19T05:22:45.865Z,12.50
2018-08-19T05:25:15.584Z,12.80
2018-08-19T05:27:47.082Z,11.47
2018-08-19T05:30:16.840Z,13.07
2018-08-19T05:32:50.560Z,12.33
2018-08-19T05:35:20.371Z,12.50
2018-08-19T05:37:50.086Z,12.93
2018-08-19T05:40:19.913Z,12.57
2018-08-19T05:42:49.712Z,11.83
2018-08-19T05:45:19.374Z,12.43
2018-08-19T05:48:05.696Z,12.23
2018-08-19T05:50:35.582Z,12.13
2018-08-19T05:53:05.398Z,12.60
2018-08-19T05:55:35.178Z,12.17
2018-08-19T05:58:04.789Z,12.13
2018-08-19T06:00:34.635Z,12.93
2018-08-19T06:03:04.462Z,12.47
2018-08-19T06:05:34.119Z,12.73
2018-08-19T06:08:08.022Z,12.03
2018-08-19T06:10:38.207Z,12.87
2018-08-19T06:13:09.577Z,12.73
2018-08-19T06:15:39.607Z,11.97
2018-08-19T06:18:10.185Z,12.03
2018-08-19T06:20:39.865Z,11.43
2018-08-19T06:23:09.543Z,12.47
2018-08-19T06:25:39.234Z,12.00
2018-08-19T06:28:08.976Z,12.03
2018-08-19T06:30:38.731Z,11.53
2018-08-19T06:33:08.743Z,12.37
2018-08-19T06:41:22.383Z,11.57
2018-08-19T06:43:52.077Z,11.63
2018-08-19T06:46:21.717Z,10.70
2018-08-19T06:48:51.366Z,11.50
2018-08-19T06:51:21.092Z,10.17
2018-08-19T06:53:50.852Z,10.70
2018-08-19T06:56:20.780Z,9.93
2018-08-19T06:58:50.779Z,10.33
2018-08-19T07:01:20.666Z,10.47
2018-08-19T07:03:54.760Z,9.03
2018-08-19T07:06:24.617Z,9.67
2018-08-19T07:08:55.162Z,9.03
2018-08-19T07:11:25.169Z,9.73
2018-08-19T07:13:54.951Z,9.23
2018-08-19T07:16:24.743Z,8.63
2018-08-19T07:18:54.579Z,8.77
2018-08-19T07:21:24.247Z,8.70
2018-08-19T07:23:54.068Z,7.87
2018-08-19T07:26:23.725Z,7.73
2018-08-19T07:28:53.555Z,7.67
2018-08-19T07:31:23.853Z,7.27
2018-08-19T07:33:54.346Z,7.47
2018-08-19T07:36:24.399Z,6.83
2018-08-19T07:38:54.173Z,7.03
2018-08-19T07:41:24.043Z,6.87
2018-08-19T07:43:53.969Z,7.10
2018-08-19T07:46:23.659Z,6.37
2018-08-19T07:48:53.855Z,6.43
2018-08-19T07:51:23.539Z,7.00
2018-08-19T07:53:53.175Z,7.30
2018-08-19T07:56:22.847Z,6.63
2018-08-19T07:58:57.712Z,6.23
2018-08-19T08:01:27.593Z,6.40
2018-08-19T08:03:57.206Z,6.20
2018-08-19T08:06:29.870Z,7.17
2018-08-19T08:09:00.753Z,6.07
2018-08-19T08:11:30.699Z,5.67
2018-08-19T08:14:00.419Z,6.73
2018-08-19T08:16:30.179Z,6.17
2018-08-19T08:18:59.899Z,6.30
2018-08-19T08:21:30.721Z,6.37
2018-08-19T08:24:00.287Z,6.93
2018-08-19T08:26:30.064Z,6.30
2018-08-19T08:29:04.711Z,6.63
2018-08-19T08:31:42.281Z,6.80
2018-08-19T08:34:11.973Z,7.30
2018-08-19T08:36:42.299Z,7.10
2018-08-19T08:39:13.803Z,8.17
2018-08-19T08:41:43.436Z,7.93
2018-08-19T08:44:13.147Z,7.03
2018-08-19T08:46:42.880Z,7.40
2018-08-19T08:49:12.577Z,7.57
2018-08-19T08:51:42.488Z,7.73
2018-08-19T08:54:12.347Z,7.67
2018-08-19T08:56:42.205Z,7.37
2018-08-19T08:59:12.116Z,7.57
2018-08-19T09:01:42.053Z,7.17
2018-08-19T09:04:11.874Z,7.20
2018-08-19T09:06:41.743Z,7.33
2018-08-19T09:09:11.499Z,7.07
2018-08-19T09:11:41.937Z,7.13
2018-08-19T09:14:11.747Z,7.27
2018-08-19T09:16:41.574Z,7.17
2018-08-19T09:19:11.205Z,7.00
2018-08-19T09:21:40.906Z,7.37
2018-08-19T09:24:10.656Z,7.80
2018-08-19T09:26:40.396Z,8.00
2018-08-19T09:29:10.110Z,7.77
2018-08-19T09:31:39.974Z,8.40
2018-08-19T09:34:10.302Z,7.87
2018-08-19T09:36:40.109Z,8.30
2018-08-19T09:39:11.944Z,7.63
2018-08-19T09:41:41.798Z,7.80
2018-08-19T09:44:11.575Z,7.57
2018-08-19T09:46:41.394Z,8.13
2018-08-19T09:49:11.216Z,7.93
2018-08-19T09:51:41.220Z,7.73
2018-08-19T09:54:12.048Z,8.33
2018-08-19T09:56:42.050Z,8.40
2018-08-19T09:59:11.782Z,7.80
2018-08-19T10:01:45.955Z,8.00
2018-08-19T10:04:22.490Z,7.77
2018-08-19T10:07:01.295Z,7.37
2018-08-19T10:09:31.395Z,7.17
2018-08-19T10:12:01.231Z,8.03
2018-08-19T10:14:30.927Z,7.73
2018-08-19T10:17:00.890Z,8.10
2018-08-19T10:19:30.917Z,8.07
2018-08-19T10:22:00.782Z,7.70
2018-08-19T10:24:31.670Z,8.20
2018-08-19T10:27:01.620Z,8.20
2018-08-19T10:29:31.361Z,8.23
2018-08-19T10:32:02.663Z,7.60
2018-08-19T10:34:35.822Z,7.30
2018-08-19T10:37:06.330Z,7.70
2018-08-19T10:39:36.103Z,8.03
2018-08-19T10:42:20.275Z,7.63
2018-08-19T10:44:51.023Z,8.33
2018-08-19T10:47:21.767Z,8.63
2018-08-19T10:50:13.443Z,7.83
2018-08-19T10:52:43.818Z,8.07
2018-08-19T10:55:14.302Z,8.30
2018-08-19T10:57:44.095Z,7.90
2018-08-19T11:00:22.150Z,7.43
2018-08-19T11:02:51.996Z,8.20
2018-08-19T11:05:21.879Z,8.23
2018-08-19T11:07:51.683Z,8.13
2018-08-19T11:10:25.746Z,7.90
2018-08-19T11:12:57.387Z,7.70
2018-08-19T11:15:46.339Z,7.80
2018-08-19T11:18:45.785Z,8.50
2018-08-19T11:21:26.527Z,7.60
2018-08-19T11:23:57.019Z,7.70
2018-08-19T11:26:26.991Z,7.37
2018-08-19T11:28:58.079Z,8.07
2018-08-19T11:31:31.768Z,7.87
2018-08-19T11:34:03.575Z,8.10
2018-08-19T11:36:39.000Z,8.13
2018-08-19T11:39:13.016Z,8.30
2018-08-19T11:41:42.639Z,8.33
2018-08-19T11:44:17.570Z,8.50
2018-08-19T11:46:47.367Z,8.77
2018-08-19T11:49:18.885Z,8.30
2018-08-19T11:51:56.085Z,8.67
2018-08-19T11:54:26.546Z,8.70
2018-08-19T11:57:02.717Z,8.93
2018-08-19T11:59:37.030Z,8.20
2018-08-19T12:02:14.325Z,9.17
2018-08-19T12:04:44.518Z,8.73
2018-08-19T12:07:14.197Z,8.70
2018-08-19T12:09:50.742Z,8.50
2018-08-19T12:12:23.375Z,8.93
2018-08-19T12:14:53.059Z,9.07
2018-08-19T12:17:22.748Z,9.83
2018-08-19T12:19:52.531Z,9.37
2018-08-19T12:22:22.454Z,9.07
2018-08-19T12:24:52.313Z,9.50
2018-08-19T12:27:23.550Z,8.77
2018-08-19T12:30:29.297Z,9.23
2018-08-19T12:33:15.613Z,9.07
2018-08-19T12:35:45.386Z,9.10
2018-08-19T12:38:15.331Z,9.97
2018-08-19T12:40:48.017Z,9.40
2018-08-19T12:43:18.633Z,10.33
2018-08-19T12:45:49.165Z,9.87
2018-08-19T12:48:19.623Z,9.63
2018-08-19T12:50:54.884Z,9.83
2018-08-19T12:53:26.436Z,9.20
2018-08-19T12:55:58.087Z,9.63
2018-08-19T12:58:28.445Z,10.37
2018-08-19T13:00:59.127Z,10.03
2018-08-19T13:03:31.089Z,9.60
2018-08-19T13:06:09.160Z,9.70
2018-08-19T13:08:42.804Z,9.50
2018-08-19T13:11:13.848Z,8.93
2018-08-19T13:13:44.642Z,9.10
2018-08-19T13:16:15.192Z,8.73
2018-08-19T13:18:45.334Z,9.10
2018-08-19T13:21:16.224Z,9.17
2018-08-19T13:23:46.084Z,9.13
2018-08-19T13:26:16.048Z,8.77
2018-08-19T13:28:51.524Z,9.13
2018-08-19T13:31:25.659Z,9.10
2018-08-19T13:33:55.684Z,8.10
2018-08-19T13:36:25.489Z,8.20
2018-08-19T13:38:55.318Z,8.90
2018-08-19T13:41:25.103Z,8.13
2018-08-19T13:43:55.027Z,8.83
2018-08-19T13:46:24.729Z,8.93
2018-08-19T13:48:54.641Z,9.17
2018-08-19T13:51:24.531Z,9.10
2018-08-19T13:53:54.437Z,8.90
2018-08-19T13:56:24.288Z,8.40
2018-08-19T13:58:55.172Z,8.60
2018-08-19T14:01:24.799Z,8.30
2018-08-19T14:03:54.900Z,8.27
2018-08-19T14:06:24.813Z,7.57
2018-08-19T14:08:54.500Z,8.57
2018-08-19T14:11:24.139Z,8.07
2018-08-19T14:13:54.017Z,8.30
2018-08-19T14:16:24.055Z,8.17
2018-08-19T14:18:53.763Z,8.30
2018-08-19T14:21:23.810Z,7.20
2018-08-19T14:23:53.767Z,7.40
2018-08-19T14:26:23.567Z,8.30
2018-08-19T14:28:53.654Z,8.00
2018-08-19T14:31:23.688Z,6.77
2018-08-19T14:33:54.334Z,6.70
2018-08-19T14:36:25.191Z,7.30
2018-08-19T14:38:55.389Z,6.50
2018-08-19T14:41:25.210Z,7.13
2018-08-19T14:44:02.659Z,7.23
2018-08-19T14:46:33.284Z,6.73
2018-08-19T14:49:05.268Z,6.80
2018-08-19T14:51:56.403Z,7.10
2018-08-19T14:54:26.337Z,7.33
2018-08-19T14:56:56.383Z,7.40
2018-08-19T14:59:26.417Z,7.23
2018-08-19T15:01:56.474Z,6.83
2018-08-19T15:04:26.521Z,7.60
2018-08-19T15:06:56.938Z,8.07
2018-08-19T15:09:31.131Z,7.70
2018-08-19T15:12:21.538Z,8.07
2018-08-19T15:14:52.315Z,7.80
2018-08-19T15:17:22.143Z,7.63
2018-08-19T15:19:53.278Z,8.63
2018-08-19T15:22:22.993Z,7.80
2018-08-19T15:24:53.696Z,8.13
2018-08-19T15:27:23.811Z,8.30
2018-08-19T15:29:54.900Z,7.73
2018-08-19T15:32:25.842Z,8.73
2018-08-19T15:34:55.429Z,8.67
2018-08-19T15:37:25.296Z,8.60
2018-08-19T15:39:55.061Z,9.10
2018-08-19T15:42:25.138Z,9.37
2018-08-19T15:44:54.815Z,8.67
2018-08-19T15:47:24.823Z,8.73
2018-08-19T15:50:15.123Z,8.97
2018-08-19T15:52:45.164Z,9.17
2018-08-19T15:55:14.737Z,8.97
2018-08-19T15:57:44.648Z,8.57
2018-08-19T16:00:15.070Z,8.10
2018-08-19T16:02:44.921Z,8.63
2018-08-19T16:05:17.362Z,8.77
2018-08-19T16:07:47.678Z,8.60
2018-08-19T16:10:17.866Z,8.33
2018-08-19T16:12:50.091Z,8.60
2018-08-19T16:15:26.634Z,8.77
2018-08-19T16:17:57.828Z,9.37
2018-08-19T16:20:28.535Z,8.37
2018-08-19T16:22:58.548Z,8.57
2018-08-19T16:25:28.949Z,9.20
2018-08-19T16:27:59.007Z,8.80
2018-08-19T16:30:29.028Z,8.00
2018-08-19T16:32:58.716Z,8.30
2018-08-19T16:35:28.515Z,8.33
2018-08-19T16:37:59.666Z,9.20
2018-08-19T16:40:29.706Z,8.30
2018-08-19T16:42:59.747Z,8.80
2018-08-19T16:45:29.862Z,8.70
2018-08-19T16:48:00.351Z,8.73
2018-08-19T16:50:31.189Z,8.50
2018-08-19T16:53:02.651Z,8.23
2018-08-19T16:55:32.434Z,8.67
2018-08-19T16:58:02.956Z,8.73
2018-08-19T17:00:32.746Z,8.60
2018-08-19T17:03:07.197Z,9.50
2018-08-19T17:05:37.236Z,9.20
2018-08-19T17:08:07.614Z,9.43
2018-08-19T17:10:37.386Z,9.37
2018-08-19T17:13:07.163Z,10.77
2018-08-19T17:15:37.170Z,10.27
2018-08-19T17:18:07.818Z,10.77
2018-08-19T17:20:37.556Z,10.07
2018-08-19T17:23:07.797Z,9.30
2018-08-19T17:25:38.774Z,10.03
2018-08-19T17:28:14.423Z,9.23
2018-08-19T17:30:44.563Z,9.73
2018-08-19T17:33:14.601Z,9.73
2018-08-19T17:35:48.028Z,10.20
2018-08-19T17:38:18.279Z,9.97
2018-08-19T17:40:48.521Z,10.30
2018-08-19T17:43:18.700Z,10.10
2018-08-19T17:45:49.968Z,10.27
2018-08-19T17:48:19.839Z,10.00
2018-08-19T17:50:51.889Z,9.33
2018-08-19T17:53:22.063Z,9.83
2018-08-19T17:55:51.852Z,10.87
2018-08-19T17:58:21.894Z,10.57
2018-08-19T18:00:52.099Z,11.33
2018-08-19T18:03:23.750Z,12.57
2018-08-19T18:05:54.038Z,12.43
2018-08-19T18:08:24.597Z,11.70
2018-08-19T18:10:58.152Z,12.60
2018-08-19T18:13:31.182Z,12.00
2018-08-19T18:16:00.877Z,11.57
2018-08-19T18:18:30.998Z,12.03
2018-08-19T18:21:04.249Z,11.20
2018-08-19T18:23:34.287Z,12.67
2018-08-19T18:26:04.163Z,11.80
2018-08-19T18:28:34.981Z,11.63
2018-08-19T18:31:07.886Z,12.07
2018-08-19T18:33:46.211Z,11.63
2018-08-19T18:36:19.577Z,10.43
2018-08-19T18:38:49.614Z,11.10
2018-08-19T18:41:25.984Z,10.37
2018-08-19T18:44:00.947Z,9.90
2018-08-19T18:46:31.153Z,9.67
2018-08-19T18:49:07.902Z,9.77
2018-08-19T18:51:38.308Z,10.27
2018-08-19T18:54:18.509Z,11.50
2018-08-19T18:56:48.641Z,9.77
2018-08-19T18:59:18.460Z,11.23
2018-08-19T19:01:48.211Z,10.07
2018-08-19T19:04:18.034Z,10.60
2018-08-19T19:06:48.521Z,10.60
2018-08-19T19:09:20.443Z,9.87
2018-08-19T19:11:52.445Z,9.70
2018-08-19T19:14:23.079Z,10.93
2018-08-19T19:16:54.695Z,10.73
2018-08-19T19:19:30.264Z,9.90
2018-08-19T19:22:01.793Z,10.37
2018-08-19T19:24:36.070Z,10.50
2018-08-19T19:27:06.299Z,10.43
2018-08-19T19:29:36.854Z,9.90
2018-08-19T19:32:28.830Z,10.00
2018-08-19T19:35:32.811Z,10.47
2018-08-19T19:38:02.943Z,10.93
2018-08-19T19:40:33.071Z,10.57
2018-08-19T19:43:03.663Z,10.07
2018-08-19T19:45:43.401Z,10.03
2018-08-19T19:48:13.725Z,10.17
2018-08-19T19:50:43.476Z,10.03
2018-08-19T19:53:13.263Z,10.33
2018-08-19T19:55:43.446Z,10.27
2018-08-19T19:58:13.467Z,11.03
2018-08-19T20:00:54.280Z,11.23
2018-08-19T20:03:25.021Z,11.17
2018-08-19T20:05:57.731Z,11.90
2018-08-19T20:08:27.501Z,9.50
2018-08-19T20:10:57.559Z,10.30
2018-08-19T20:13:27.590Z,11.00
2018-08-19T20:15:57.511Z,10.27
2018-08-19T20:18:27.249Z,11.50
2018-08-19T20:20:59.013Z,11.10
2018-08-19T20:23:28.743Z,12.73
2018-08-19T20:25:58.783Z,11.70
2018-08-19T20:28:28.433Z,12.07
2018-08-19T20:30:58.315Z,10.60
2018-08-19T20:33:28.991Z,11.53
2018-08-19T20:35:59.473Z,11.20
2018-08-19T20:38:29.695Z,11.43
2018-08-19T20:41:00.131Z,11.90
2018-08-19T20:43:29.945Z,10.93
2018-08-19T20:46:01.453Z,12.53
2018-08-19T20:48:31.220Z,11.87
2018-08-19T20:51:01.107Z,12.30
2018-08-19T20:53:31.129Z,11.43
2018-08-19T20:56:01.260Z,11.60
2018-08-19T20:58:31.251Z,11.57
2018-08-19T21:01:01.025Z,11.87
2018-08-19T21:03:31.592Z,12.73
2018-08-19T21:06:01.395Z,12.43
2018-08-19T21:08:31.239Z,11.30
2018-08-19T21:11:01.107Z,12.30
2018-08-19T21:13:30.897Z,11.67
2018-08-19T21:16:00.576Z,12.00
2018-08-19T21:18:31.909Z,11.87
2018-08-19T21:21:01.721Z,11.70
2018-08-19T21:23:31.443Z,11.43
2018-08-19T21:26:02.326Z,11.90
2018-08-19T21:28:32.159Z,11.27
2018-08-19T21:31:01.853Z,10.53
2018-08-19T21:33:31.563Z,11.50
2018-08-19T21:36:01.455Z,11.67
2018-08-19T21:38:31.212Z,12.27
2018-08-19T21:41:00.954Z,11.87
2018-08-19T21:43:31.715Z,11.63
2018-08-19T21:46:01.698Z,12.00
2018-08-19T21:48:31.302Z,12.00
2018-08-19T21:51:01.595Z,11.50
2018-08-19T21:53:31.306Z,12.03
2018-08-19T21:56:01.036Z,12.67
2018-08-19T21:58:30.784Z,13.27
2018-08-19T22:01:02.060Z,14.57
2018-08-19T22:03:37.131Z,13.97
2018-08-19T22:06:09.285Z,12.97
2018-08-19T22:08:39.053Z,13.27
2018-08-19T22:11:08.923Z,13.50
2018-08-19T22:13:38.708Z,13.27
2018-08-19T22:16:08.807Z,13.37
2018-08-19T22:18:38.578Z,14.20
2018-08-19T22:21:21.632Z,12.13
2018-08-19T22:23:52.928Z,12.27
2018-08-19T22:26:22.618Z,11.27
2018-08-19T22:29:09.445Z,12.63
2018-08-19T22:31:39.110Z,12.00
2018-08-19T22:34:08.769Z,11.37
2018-08-19T22:36:38.414Z,12.33
2018-08-19T22:39:11.163Z,11.53
2018-08-19T22:41:40.799Z,10.93
2018-08-19T22:44:10.498Z,11.17
2018-08-19T22:46:40.203Z,12.23
2018-08-19T22:49:09.805Z,12.10
2018-08-19T22:51:39.419Z,10.00
2018-08-19T22:54:09.153Z,11.63
2018-08-19T22:56:38.846Z,9.67
2018-08-19T22:59:08.580Z,12.73
2018-08-19T23:01:43.400Z,12.50
2018-08-19T23:04:13.135Z,12.50
2018-08-19T23:06:42.908Z,13.03
2018-08-19T23:09:12.565Z,13.10
2018-08-19T23:11:47.649Z,12.50
2018-08-19T23:14:34.974Z,11.00
2018-08-19T23:17:08.395Z,11.57
2018-08-19T23:19:38.176Z,10.20
2018-08-19T23:22:07.902Z,10.77
2018-08-19T23:24:37.593Z,11.77
2018-08-19T23:27:07.286Z,11.63
2018-08-19T23:29:36.982Z,11.37
2018-08-19T23:32:06.814Z,12.73
2018-08-19T23:34:36.702Z,11.10
2018-08-19T23:37:06.527Z,11.93
2018-08-19T23:39:36.241Z,11.47
2018-08-19T23:42:05.953Z,12.50
2018-08-19T23:44:35.650Z,11.70
2018-08-19T23:47:05.500Z,11.33
2018-08-19T23:49:35.242Z,11.97
2018-08-19T23:52:04.986Z,12.07
2018-08-19T23:54:35.666Z,11.50
2018-08-19T23:57:05.491Z,10.80
2018-08-19T23:59:36.018Z,11.63
